Weather at Narrabri Airport

Public forecast

Using degrees Celsius for public forecast. Weather courtesy of forecast.io.

Current aviation weather report (METAR) for Narrabri Airport

Retrieved 2020/12/01 17:00 UTC (7 minutes ago):

YNBR 011700Z AUTO 14009KT //// // NCD 33/12 Q1009

Closest aviation forecast (TAF) to Narrabri Airport

Closest forecast is Tamworth Airport, 69.9 nm (129.4 km) SE. Retrieved 2020/12/01 12:36 UTC (5 hours ago):

TAF YSTW 011043Z 0112/0206 01012KT CAVOK FM011400 15006KT CAVOK